Terminal Aerodrome Forecast
Issued by NWS

Home | Current Version | Previous Version | Text Only | Print | Product List | Glossary Off
Versions: 1 2 3 4 5 6 7 8 9 10 11 12 13 14 15 16 17 18 19 20

000
FTUS43 KICT 301733
TAFSLN
TAF
KSLN 301733Z 3018/0118 24009KT P6SM SCT100
     FM010000 20010KT P6SM SCT090 BKN250
     FM011300 12008KT P6SM VCTS BKN090CB=

USA.gov is the U.S. government's official web portal to all federal, state and local government web resources and services.